sensor_id;sensor_type;location;lat;lon;timestamp;pressure;altitude;pressure_sealevel;temperature;humidity
12247;BME280;6186;52.022;4.692;2023-08-21T00:02:20;102395.44;;;20.67;64.30
12247;BME280;6186;52.022;4.692;2023-08-21T00:04:45;102397.28;;;20.67;64.19
12247;BME280;6186;52.022;4.692;2023-08-21T00:07:10;102400.78;;;20.67;64.36
12247;BME280;6186;52.022;4.692;2023-08-21T00:09:35;102394.59;;;20.67;64.61
12247;BME280;6186;52.022;4.692;2023-08-21T00:12:00;102392.75;;;20.67;64.62
12247;BME280;6186;52.022;4.692;2023-08-21T00:14:26;102394.59;;;20.67;64.57
12247;BME280;6186;52.022;4.692;2023-08-21T00:16:51;102388.38;;;20.66;64.89
12247;BME280;6186;52.022;4.692;2023-08-21T00:19:16;102392.84;;;20.66;64.93
12247;BME280;6186;52.022;4.692;2023-08-21T00:21:41;102393.78;;;20.65;64.92
12247;BME280;6186;52.022;4.692;2023-08-21T00:24:06;102403.63;;;20.64;64.98
12247;BME280;6186;52.022;4.692;2023-08-21T00:26:32;102399.19;;;20.63;65.21
12247;BME280;6186;52.022;4.692;2023-08-21T00:28:57;102396.66;;;20.60;65.19
12247;BME280;6186;52.022;4.692;2023-08-21T00:31:22;102395.84;;;20.58;65.34
12247;BME280;6186;52.022;4.692;2023-08-21T00:33:47;102394.16;;;20.55;65.22
12247;BME280;6186;52.022;4.692;2023-08-21T00:36:12;102391.69;;;20.51;65.29
12247;BME280;6186;52.022;4.692;2023-08-21T00:38:38;102389.19;;;20.46;65.22
12247;BME280;6186;52.022;4.692;2023-08-21T00:41:03;102387.56;;;20.42;65.21
12247;BME280;6186;52.022;4.692;2023-08-21T00:43:28;102386.84;;;20.39;65.35
12247;BME280;6186;52.022;4.692;2023-08-21T00:45:53;102380.75;;;20.35;65.40
12247;BME280;6186;52.022;4.692;2023-08-21T00:48:19;102391.59;;;20.32;65.51
12247;BME280;6186;52.022;4.692;2023-08-21T00:50:45;102384.84;;;20.22;65.51
12247;BME280;6186;52.022;4.692;2023-08-21T00:53:10;102389.31;;;20.22;65.53
12247;BME280;6186;52.022;4.692;2023-08-21T00:55:36;102381.44;;;20.19;65.65
12247;BME280;6186;52.022;4.692;2023-08-21T00:58:02;102386.81;;;20.17;65.73
12247;BME280;6186;52.022;4.692;2023-08-21T01:00:28;102388.63;;;20.17;65.91
12247;BME280;6186;52.022;4.692;2023-08-21T01:02:53;102382.47;;;20.15;65.90
12247;BME280;6186;52.022;4.692;2023-08-21T01:05:21;102385.19;;;20.13;66.02
12247;BME280;6186;52.022;4.692;2023-08-21T01:08:01;102384.47;;;20.10;65.98
12247;BME280;6186;52.022;4.692;2023-08-21T01:10:41;102389.03;;;20.06;66.21
12247;BME280;6186;52.022;4.692;2023-08-21T01:13:15;102390.09;;;20.02;66.15
12247;BME280;6186;52.022;4.692;2023-08-21T01:15:45;102383.94;;;20.00;66.31
12247;BME280;6186;52.022;4.692;2023-08-21T01:18:12;102385.00;;;19.96;66.34
12247;BME280;6186;52.022;4.692;2023-08-21T01:20:38;102379.97;;;19.89;66.42
12247;BME280;6186;52.022;4.692;2023-08-21T01:23:04;102392.31;;;19.91;66.53
12247;BME280;6186;52.022;4.692;2023-08-21T01:25:30;102383.44;;;19.91;66.67
12247;BME280;6186;52.022;4.692;2023-08-21T01:27:55;102390.59;;;19.90;66.87
12247;BME280;6186;52.022;4.692;2023-08-21T01:30:20;102392.50;;;19.87;66.75
12247;BME280;6186;52.022;4.692;2023-08-21T01:32:48;102397.03;;;19.85;66.95
12247;BME280;6186;52.022;4.692;2023-08-21T01:35:15;102388.38;;;19.78;67.15
12247;BME280;6186;52.022;4.692;2023-08-21T01:37:41;102391.78;;;19.82;67.24
12247;BME280;6186;52.022;4.692;2023-08-21T01:40:08;102377.34;;;19.64;67.17
12247;BME280;6186;52.022;4.692;2023-08-21T01:42:33;102392.06;;;19.76;67.39
12247;BME280;6186;52.022;4.692;2023-08-21T01:44:58;102402.78;;;19.74;67.56
12247;BME280;6186;52.022;4.692;2023-08-21T01:47:23;102394.75;;;19.74;67.70
12247;BME280;6186;52.022;4.692;2023-08-21T01:49:49;102400.09;;;19.74;67.71
12247;BME280;6186;52.022;4.692;2023-08-21T01:52:14;102398.31;;;19.75;67.98
12247;BME280;6186;52.022;4.692;2023-08-21T01:54:39;102401.94;;;19.74;68.01
12247;BME280;6186;52.022;4.692;2023-08-21T01:57:04;102393.16;;;19.70;68.14
12247;BME280;6186;52.022;4.692;2023-08-21T01:59:29;102404.75;;;19.69;68.17
12247;BME280;6186;52.022;4.692;2023-08-21T02:01:55;102404.81;;;19.67;68.35
12247;BME280;6186;52.022;4.692;2023-08-21T02:04:20;102401.28;;;19.67;68.42
12247;BME280;6186;52.022;4.692;2023-08-21T02:06:45;102397.78;;;19.65;68.40
12247;BME280;6186;52.022;4.692;2023-08-21T02:09:11;102405.00;;;19.63;68.53
12247;BME280;6186;52.022;4.692;2023-08-21T02:11:36;102401.50;;;19.61;68.55
12247;BME280;6186;52.022;4.692;2023-08-21T02:14:01;102398.00;;;19.59;68.68
12247;BME280;6186;52.022;4.692;2023-08-21T02:16:26;102399.94;;;19.55;68.79
12247;BME280;6186;52.022;4.692;2023-08-21T02:18:52;102398.16;;;19.56;68.97
12247;BME280;6186;52.022;4.692;2023-08-21T02:21:17;102401.78;;;19.53;69.07
12247;BME280;6186;52.022;4.692;2023-08-21T02:23:42;102403.63;;;19.53;69.25
12247;BME280;6186;52.022;4.692;2023-08-21T02:26:07;102394.78;;;19.51;69.32
12247;BME280;6186;52.022;4.692;2023-08-21T02:28:33;102400.13;;;19.51;69.53
12247;BME280;6186;52.022;4.692;2023-08-21T02:30:58;102398.38;;;19.50;69.68
12247;BME280;6186;52.022;4.692;2023-08-21T02:33:23;102398.38;;;19.50;69.81
12247;BME280;6186;52.022;4.692;2023-08-21T02:35:48;102400.13;;;19.51;70.02
12247;BME280;6186;52.022;4.692;2023-08-21T02:38:13;102394.78;;;19.51;70.22
12247;BME280;6186;52.022;4.692;2023-08-21T02:40:39;102398.31;;;19.51;70.32
12247;BME280;6186;52.022;4.692;2023-08-21T02:43:04;102393.97;;;19.49;70.39
12247;BME280;6186;52.022;4.692;2023-08-21T02:45:30;102397.56;;;19.48;70.46
12247;BME280;6186;52.022;4.692;2023-08-21T02:47:55;102388.66;;;19.47;70.55
12247;BME280;6186;52.022;4.692;2023-08-21T02:50:20;102392.34;;;19.45;70.61
12247;BME280;6186;52.022;4.692;2023-08-21T02:52:46;102391.63;;;19.40;70.67
12247;BME280;6186;52.022;4.692;2023-08-21T02:55:11;102392.50;;;19.40;70.79
12247;BME280;6186;52.022;4.692;2023-08-21T02:57:36;102393.50;;;19.38;70.88
12247;BME280;6186;52.022;4.692;2023-08-21T03:00:02;102395.28;;;19.37;70.94
12247;BME280;6186;52.022;4.692;2023-08-21T03:02:27;102405.16;;;19.35;71.03
12247;BME280;6186;52.022;4.692;2023-08-21T03:04:52;102388.38;;;19.32;70.99
12247;BME280;6186;52.022;4.692;2023-08-21T03:07:17;102386.78;;;19.26;70.95
12247;BME280;6186;52.022;4.692;2023-08-21T03:09:45;102390.41;;;19.24;71.10
12247;BME280;6186;52.022;4.692;2023-08-21T03:12:10;102385.13;;;19.22;71.21
12247;BME280;6186;52.022;4.692;2023-08-21T03:14:36;102389.66;;;19.20;71.39
12247;BME280;6186;52.022;4.692;2023-08-21T03:17:01;102398.59;;;19.19;71.60
12247;BME280;6186;52.022;4.692;2023-08-21T03:19:26;102385.34;;;19.16;71.59
12247;BME280;6186;52.022;4.692;2023-08-21T03:21:51;102388.16;;;19.13;71.60
12247;BME280;6186;52.022;4.692;2023-08-21T03:24:17;102381.19;;;19.08;71.71
12247;BME280;6186;52.022;4.692;2023-08-21T03:26:42;102388.31;;;19.09;71.85
12247;BME280;6186;52.022;4.692;2023-08-21T03:29:07;102379.47;;;19.07;72.08
12247;BME280;6186;52.022;4.692;2023-08-21T03:31:32;102382.19;;;19.05;72.11
12247;BME280;6186;52.022;4.692;2023-08-21T03:33:58;102376.94;;;19.02;72.18
12247;BME280;6186;52.022;4.692;2023-08-21T03:36:23;102370.09;;;18.95;72.27
12247;BME280;6186;52.022;4.692;2023-08-21T03:38:49;102376.25;;;18.97;72.44
12247;BME280;6186;52.022;4.692;2023-08-21T03:41:14;102381.72;;;18.94;72.53
12247;BME280;6186;52.022;4.692;2023-08-21T03:43:40;102376.41;;;18.93;72.66
12247;BME280;6186;52.022;4.692;2023-08-21T03:46:05;102378.25;;;18.91;72.80
12247;BME280;6186;52.022;4.692;2023-08-21T03:48:30;102381.94;;;18.88;72.83
12247;BME280;6186;52.022;4.692;2023-08-21T03:50:55;102388.16;;;18.87;72.95
12247;BME280;6186;52.022;4.692;2023-08-21T03:53:20;102391.84;;;18.85;73.04
12247;BME280;6186;52.022;4.692;2023-08-21T03:55:46;102382.06;;;18.84;73.21
12247;BME280;6186;52.022;4.692;2023-08-21T03:58:13;102380.50;;;18.78;73.54
12247;BME280;6186;52.022;4.692;2023-08-21T04:00:38;102388.41;;;18.81;73.42
12247;BME280;6186;52.022;4.692;2023-08-21T04:03:03;102392.81;;;18.82;73.68
12247;BME280;6186;52.022;4.692;2023-08-21T04:05:28;102395.47;;;18.82;73.81
12247;BME280;6186;52.022;4.692;2023-08-21T04:07:54;102383.91;;;18.82;73.91
12247;BME280;6186;52.022;4.692;2023-08-21T04:10:19;102392.94;;;18.79;74.11
12247;BME280;6186;52.022;4.692;2023-08-21T04:12:44;102394.66;;;18.80;74.15
12247;BME280;6186;52.022;4.692;2023-08-21T04:15:10;102393.69;;;18.83;74.46
12247;BME280;6186;52.022;4.692;2023-08-21T04:17:35;102390.00;;;18.87;74.75
12247;BME280;6186;52.022;4.692;2023-08-21T04:20:00;102382.00;;;18.87;74.97
12247;BME280;6186;52.022;4.692;2023-08-21T04:22:25;102384.59;;;18.88;75.07
12247;BME280;6186;52.022;4.692;2023-08-21T04:24:50;102394.25;;;18.91;75.24
12247;BME280;6186;52.022;4.692;2023-08-21T04:27:16;102392.53;;;18.90;75.29
12247;BME280;6186;52.022;4.692;2023-08-21T04:29:41;102381.16;;;18.85;75.44
12247;BME280;6186;52.022;4.692;2023-08-21T04:32:06;102395.31;;;18.87;75.32
12247;BME280;6186;52.022;4.692;2023-08-21T04:34:32;102394.50;;;18.85;75.40
12247;BME280;6186;52.022;4.692;2023-08-21T04:36:57;102393.63;;;18.84;75.74
12247;BME280;6186;52.022;4.692;2023-08-21T04:39:22;102396.34;;;18.83;75.66
12247;BME280;6186;52.022;4.692;2023-08-21T04:41:48;102393.75;;;18.81;75.87
12247;BME280;6186;52.022;4.692;2023-08-21T04:44:13;102381.91;;;18.63;75.91
12247;BME280;6186;52.022;4.692;2023-08-21T04:46:38;102400.94;;;18.77;76.03
12247;BME280;6186;52.022;4.692;2023-08-21T04:49:03;102403.63;;;18.77;76.21
12247;BME280;6186;52.022;4.692;2023-08-21T04:51:29;102408.97;;;18.77;76.42
12247;BME280;6186;52.022;4.692;2023-08-21T04:53:54;102402.66;;;18.80;76.63
12247;BME280;6186;52.022;4.692;2023-08-21T04:56:19;102404.41;;;18.81;76.73
12247;BME280;6186;52.022;4.692;2023-08-21T04:58:44;102408.00;;;18.80;76.78
12247;BME280;6186;52.022;4.692;2023-08-21T05:01:09;102406.22;;;18.81;76.88
12247;BME280;6186;52.022;4.692;2023-08-21T05:03:35;102402.81;;;18.75;76.85
12247;BME280;6186;52.022;4.692;2023-08-21T05:06:00;102412.50;;;18.78;77.21
12247;BME280;6186;52.022;4.692;2023-08-21T05:08:26;102409.78;;;18.79;77.44
12247;BME280;6186;52.022;4.692;2023-08-21T05:10:58;102400.00;;;18.80;77.59
12247;BME280;6186;52.022;4.692;2023-08-21T05:13:24;102411.53;;;18.81;77.65
12247;BME280;6186;52.022;4.692;2023-08-21T05:15:54;102410.59;;;18.82;77.88
12247;BME280;6186;52.022;4.692;2023-08-21T05:18:19;102410.72;;;18.78;77.85
12247;BME280;6186;52.022;4.692;2023-08-21T05:20:44;102409.84;;;18.78;78.06
12247;BME280;6186;52.022;4.692;2023-08-21T05:23:10;102416.13;;;18.77;78.25
12247;BME280;6186;52.022;4.692;2023-08-21T05:25:35;102414.28;;;18.79;78.40
12247;BME280;6186;52.022;4.692;2023-08-21T05:28:00;102419.56;;;18.81;78.71
12247;BME280;6186;52.022;4.692;2023-08-21T05:30:25;102417.75;;;18.81;79.00
12247;BME280;6186;52.022;4.692;2023-08-21T05:32:51;102409.69;;;18.83;79.17
12247;BME280;6186;52.022;4.692;2023-08-21T05:35:16;102423.75;;;18.88;79.38
12247;BME280;6186;52.022;4.692;2023-08-21T05:37:41;102418.28;;;18.91;79.54
12247;BME280;6186;52.022;4.692;2023-08-21T05:40:07;102417.31;;;18.93;79.77
12247;BME280;6186;52.022;4.692;2023-08-21T05:42:32;102421.63;;;18.97;79.93
12247;BME280;6186;52.022;4.692;2023-08-21T05:44:57;102418.00;;;19.00;80.09
12247;BME280;6186;52.022;4.692;2023-08-21T05:47:22;102408.97;;;19.02;80.32
12247;BME280;6186;52.022;4.692;2023-08-21T05:49:48;102416.03;;;19.05;80.42
12247;BME280;6186;52.022;4.692;2023-08-21T05:52:13;102423.06;;;19.07;80.70
12247;BME280;6186;52.022;4.692;2023-08-21T05:54:38;102416.72;;;19.10;80.88
12247;BME280;6186;52.022;4.692;2023-08-21T05:57:03;102419.31;;;19.13;81.07
12247;BME280;6186;52.022;4.692;2023-08-21T05:59:32;102416.44;;;19.17;81.37
12247;BME280;6186;52.022;4.692;2023-08-21T06:01:58;102412.69;;;19.23;81.52
12247;BME280;6186;52.022;4.692;2023-08-21T06:04:24;102414.31;;;19.27;81.89
12247;BME280;6186;52.022;4.692;2023-08-21T06:06:49;102416.84;;;19.31;82.12
12247;BME280;6186;52.022;4.692;2023-08-21T06:09:14;102415.84;;;19.35;82.31
12247;BME280;6186;52.022;4.692;2023-08-21T06:11:39;102420.97;;;19.41;82.65
12247;BME280;6186;52.022;4.692;2023-08-21T06:14:05;102417.13;;;19.48;82.93
12247;BME280;6186;52.022;4.692;2023-08-21T06:16:30;102426.72;;;19.54;83.18
12247;BME280;6186;52.022;4.692;2023-08-21T06:18:55;102430.97;;;19.59;83.39
12247;BME280;6186;52.022;4.692;2023-08-21T06:21:20;102430.88;;;19.61;83.34
12247;BME280;6186;52.022;4.692;2023-08-21T06:23:45;102428.97;;;19.64;83.46
12247;BME280;6186;52.022;4.692;2023-08-21T06:26:11;102430.66;;;19.67;83.59
12247;BME280;6186;52.022;4.692;2023-08-21T06:28:36;102427.13;;;19.66;83.80
12247;BME280;6186;52.022;4.692;2023-08-21T06:31:01;102434.03;;;19.72;84.08
12247;BME280;6186;52.022;4.692;2023-08-21T06:33:26;102436.59;;;19.75;84.28
12247;BME280;6186;52.022;4.692;2023-08-21T06:35:51;102428.47;;;19.78;84.39
12247;BME280;6186;52.022;4.692;2023-08-21T06:38:17;102437.22;;;19.82;84.64
12247;BME280;6186;52.022;4.692;2023-08-21T06:40:44;102431.84;;;19.83;84.79
12247;BME280;6186;52.022;4.692;2023-08-21T06:43:10;102432.53;;;19.88;85.08
12247;BME280;6186;52.022;4.692;2023-08-21T06:45:35;102427.06;;;19.91;85.03
12247;BME280;6186;52.022;4.692;2023-08-21T06:48:00;102436.72;;;19.95;85.23
12247;BME280;6186;52.022;4.692;2023-08-21T06:50:25;102436.59;;;19.98;85.32
12247;BME280;6186;52.022;4.692;2023-08-21T06:52:51;102439.16;;;20.01;85.48
12247;BME280;6186;52.022;4.692;2023-08-21T06:55:16;102442.63;;;20.03;85.63
12247;BME280;6186;52.022;4.692;2023-08-21T06:57:41;102438.91;;;20.07;85.89
12247;BME280;6186;52.022;4.692;2023-08-21T07:00:07;102428.91;;;20.12;86.16
12247;BME280;6186;52.022;4.692;2023-08-21T07:02:32;102442.06;;;20.18;86.61
12247;BME280;6186;52.022;4.692;2023-08-21T07:04:57;102426.03;;;20.18;86.75
12247;BME280;6186;52.022;4.692;2023-08-21T07:07:23;102434.47;;;20.29;86.79
12247;BME280;6186;52.022;4.692;2023-08-21T07:09:50;102432.50;;;20.34;87.11
12247;BME280;6186;52.022;4.692;2023-08-21T07:12:15;102432.31;;;20.39;87.33
12247;BME280;6186;52.022;4.692;2023-08-21T07:14:40;102441.88;;;20.44;87.48
12247;BME280;6186;52.022;4.692;2023-08-21T07:17:05;102437.25;;;20.49;87.87
12247;BME280;6186;52.022;4.692;2023-08-21T07:19:30;102447.66;;;20.55;88.17
12247;BME280;6186;52.022;4.692;2023-08-21T07:21:56;102441.19;;;20.61;88.42
12247;BME280;6186;52.022;4.692;2023-08-21T07:24:21;102443.56;;;20.69;88.63
12247;BME280;6186;52.022;4.692;2023-08-21T07:26:46;102440.56;;;20.76;88.89
12247;BME280;6186;52.022;4.692;2023-08-21T07:29:11;102447.41;;;20.83;89.29
12247;BME280;6186;52.022;4.692;2023-08-21T07:31:37;102441.66;;;20.92;89.85
12247;BME280;6186;52.022;4.692;2023-08-21T07:34:02;102454.72;;;21.00;89.96
12247;BME280;6186;52.022;4.692;2023-08-21T07:36:27;102449.94;;;21.08;89.94
12247;BME280;6186;52.022;4.692;2023-08-21T07:38:52;102457.66;;;21.15;90.49
12247;BME280;6186;52.022;4.692;2023-08-21T07:41:17;102447.53;;;21.22;90.87
12247;BME280;6186;52.022;4.692;2023-08-21T07:43:44;102454.09;;;21.35;91.41
12247;BME280;6186;52.022;4.692;2023-08-21T07:46:11;102445.66;;;21.44;91.46
12247;BME280;6186;52.022;4.692;2023-08-21T07:48:37;102443.44;;;21.53;92.08
12247;BME280;6186;52.022;4.692;2023-08-21T07:51:02;102456.25;;;21.66;92.29
12247;BME280;6186;52.022;4.692;2023-08-21T07:53:28;102461.97;;;21.78;92.75
12247;BME280;6186;52.022;4.692;2023-08-21T07:55:53;102459.59;;;21.91;93.33
12247;BME280;6186;52.022;4.692;2023-08-21T07:58:19;102453.59;;;22.04;93.35
12247;BME280;6186;52.022;4.692;2023-08-21T08:00:44;102457.50;;;22.16;93.88
12247;BME280;6186;52.022;4.692;2023-08-21T08:03:10;102466.78;;;22.27;93.93
12247;BME280;6186;52.022;4.692;2023-08-21T08:05:36;102466.19;;;22.39;94.53
12247;BME280;6186;52.022;4.692;2023-08-21T08:08:01;102464.56;;;22.54;94.52
12247;BME280;6186;52.022;4.692;2023-08-21T08:10:26;102455.47;;;22.75;95.60
12247;BME280;6186;52.022;4.692;2023-08-21T08:12:51;102450.84;;;22.96;95.96
12247;BME280;6186;52.022;4.692;2023-08-21T08:15:17;102452.72;;;23.11;95.94
12247;BME280;6186;52.022;4.692;2023-08-21T08:17:43;102455.00;;;23.18;95.94
12247;BME280;6186;52.022;4.692;2023-08-21T08:20:08;102456.09;;;23.33;95.77
12247;BME280;6186;52.022;4.692;2023-08-21T08:22:34;102455.50;;;23.44;96.25
12247;BME280;6186;52.022;4.692;2023-08-21T08:24:59;102454.78;;;23.57;96.67
12247;BME280;6186;52.022;4.692;2023-08-21T08:27:24;102458.38;;;23.73;97.03
12247;BME280;6186;52.022;4.692;2023-08-21T08:29:49;102466.97;;;23.80;96.56
12247;BME280;6186;52.022;4.692;2023-08-21T08:32:15;102466.75;;;23.84;96.48
12247;BME280;6186;52.022;4.692;2023-08-21T08:34:40;102464.47;;;23.92;96.83
12247;BME280;6186;52.022;4.692;2023-08-21T08:37:05;102460.28;;;24.04;97.24
12247;BME280;6186;52.022;4.692;2023-08-21T08:39:30;102463.97;;;24.18;97.58
12247;BME280;6186;52.022;4.692;2023-08-21T08:42:03;102457.88;;;24.31;97.83
12247;BME280;6186;52.022;4.692;2023-08-21T08:44:30;102457.97;;;24.45;98.12
12247;BME280;6186;52.022;4.692;2023-08-21T08:46:55;102457.31;;;24.55;98.03
12247;BME280;6186;52.022;4.692;2023-08-21T08:49:22;102454.03;;;24.66;98.13
12247;BME280;6186;52.022;4.692;2023-08-21T08:51:49;102447.00;;;24.79;98.69
12247;BME280;6186;52.022;4.692;2023-08-21T08:54:16;102446.75;;;24.97;99.21
12247;BME280;6186;52.022;4.692;2023-08-21T08:56:41;102453.06;;;25.12;99.22
12247;BME280;6186;52.022;4.692;2023-08-21T08:59:07;102451.34;;;25.25;99.34
12247;BME280;6186;52.022;4.692;2023-08-21T09:01:33;102450.38;;;25.42;99.76
12247;BME280;6186;52.022;4.692;2023-08-21T09:03:58;102457.31;;;25.60;100.00
12247;BME280;6186;52.022;4.692;2023-08-21T09:06:23;102451.06;;;25.73;100.00
12247;BME280;6186;52.022;4.692;2023-08-21T09:08:56;102449.44;;;25.85;100.00
12247;BME280;6186;52.022;4.692;2023-08-21T09:11:22;102451.03;;;26.01;100.00
12247;BME280;6186;52.022;4.692;2023-08-21T09:13:49;102446.41;;;26.18;100.00
12247;BME280;6186;52.022;4.692;2023-08-21T09:16:15;102453.25;;;26.50;100.00
12247;BME280;6186;52.022;4.692;2023-08-21T09:18:49;102453.13;;;26.92;100.00
12247;BME280;6186;52.022;4.692;2023-08-21T09:21:22;102448.31;;;27.22;100.00
12247;BME280;6186;52.022;4.692;2023-08-21T09:23:48;102444.78;;;27.47;100.00
12247;BME280;6186;52.022;4.692;2023-08-21T09:26:20;102446.19;;;27.77;100.00
12247;BME280;6186;52.022;4.692;2023-08-21T09:28:45;102453.00;;;27.96;100.00
12247;BME280;6186;52.022;4.692;2023-08-21T09:31:11;102443.56;;;28.14;100.00
12247;BME280;6186;52.022;4.692;2023-08-21T09:33:36;102442.19;;;28.32;100.00
12247;BME280;6186;52.022;4.692;2023-08-21T09:36:03;102435.28;;;28.51;100.00
12247;BME280;6186;52.022;4.692;2023-08-21T09:38:28;102437.84;;;28.65;100.00
12247;BME280;6186;52.022;4.692;2023-08-21T09:40:54;102435.25;;;28.88;100.00
12247;BME280;6186;52.022;4.692;2023-08-21T09:43:21;102432.78;;;29.19;100.00
12247;BME280;6186;52.022;4.692;2023-08-21T09:45:47;102431.34;;;29.48;100.00
12247;BME280;6186;52.022;4.692;2023-08-21T09:48:14;102435.47;;;29.76;100.00
12247;BME280;6186;52.022;4.692;2023-08-21T09:50:39;102432.72;;;29.54;100.00
12247;BME280;6186;52.022;4.692;2023-08-21T09:53:06;102431.50;;;29.58;100.00
12247;BME280;6186;52.022;4.692;2023-08-21T09:55:32;102424.47;;;29.89;100.00
12247;BME280;6186;52.022;4.692;2023-08-21T09:58:02;102426.69;;;30.28;100.00
12247;BME280;6186;52.022;4.692;2023-08-21T10:00:29;102417.81;;;30.57;100.00
12247;BME280;6186;52.022;4.692;2023-08-21T10:03:04;102435.09;;;30.99;100.00
12247;BME280;6186;52.022;4.692;2023-08-21T10:05:34;102424.66;;;31.25;100.00
12247;BME280;6186;52.022;4.692;2023-08-21T10:08:04;102421.69;;;31.28;100.00
12247;BME280;6186;52.022;4.692;2023-08-21T10:10:32;102435.81;;;31.42;100.00
12247;BME280;6186;52.022;4.692;2023-08-21T10:12:58;102434.91;;;31.63;100.00
12247;BME280;6186;52.022;4.692;2023-08-21T10:15:24;102434.72;;;31.75;100.00
12247;BME280;6186;52.022;4.692;2023-08-21T10:17:49;102427.53;;;31.74;100.00
12247;BME280;6186;52.022;4.692;2023-08-21T10:20:20;102430.28;;;31.84;100.00
12247;BME280;6186;52.022;4.692;2023-08-21T10:22:49;102429.00;;;32.18;100.00
12247;BME280;6186;52.022;4.692;2023-08-21T10:25:20;102428.50;;;32.43;100.00
12247;BME280;6186;52.022;4.692;2023-08-21T10:27:46;102435.69;;;32.54;100.00
12247;BME280;6186;52.022;4.692;2023-08-21T10:30:16;102430.97;;;32.65;100.00
12247;BME280;6186;52.022;4.692;2023-08-21T10:32:46;102427.38;;;32.74;100.00
12247;BME280;6186;52.022;4.692;2023-08-21T10:35:30;102430.69;;;32.87;100.00
12247;BME280;6186;52.022;4.692;2023-08-21T10:38:11;102421.19;;;32.91;100.00
12247;BME280;6186;52.022;4.692;2023-08-21T10:40:38;102413.31;;;32.88;100.00
12247;BME280;6186;52.022;4.692;2023-08-21T10:43:04;102416.22;;;32.96;100.00
12247;BME280;6186;52.022;4.692;2023-08-21T10:45:30;102408.59;;;33.00;100.00
12247;BME280;6186;52.022;4.692;2023-08-21T10:47:59;102413.63;;;33.04;100.00
12247;BME280;6186;52.022;4.692;2023-08-21T10:50:25;102413.44;;;33.15;100.00
12247;BME280;6186;52.022;4.692;2023-08-21T10:52:52;102413.28;;;33.26;100.00
12247;BME280;6186;52.022;4.692;2023-08-21T10:55:18;102402.91;;;33.30;100.00
12247;BME280;6186;52.022;4.692;2023-08-21T10:57:46;102405.94;;;33.27;100.00
12247;BME280;6186;52.022;4.692;2023-08-21T11:00:14;102408.75;;;33.54;100.00
12247;BME280;6186;52.022;4.692;2023-08-21T11:02:42;102405.50;;;33.78;100.00
12247;BME280;6186;52.022;4.692;2023-08-21T11:05:08;102400.03;;;34.05;100.00
12247;BME280;6186;52.022;4.692;2023-08-21T11:07:41;102407.22;;;34.33;100.00
12247;BME280;6186;52.022;4.692;2023-08-21T11:10:07;102399.59;;;34.54;100.00
12247;BME280;6186;52.022;4.692;2023-08-21T11:12:32;102403.09;;;34.82;100.00
12247;BME280;6186;52.022;4.692;2023-08-21T11:14:57;102405.81;;;34.99;100.00
12247;BME280;6186;52.022;4.692;2023-08-21T11:17:23;102397.28;;;35.20;100.00
12247;BME280;6186;52.022;4.692;2023-08-21T11:19:49;102407.56;;;35.26;100.00
12247;BME280;6186;52.022;4.692;2023-08-21T11:22:14;102401.66;;;35.39;100.00
12247;BME280;6186;52.022;4.692;2023-08-21T11:24:43;102405.72;;;35.52;100.00
12247;BME280;6186;52.022;4.692;2023-08-21T11:27:13;102410.38;;;35.60;100.00
12247;BME280;6186;52.022;4.692;2023-08-21T11:29:46;102403.22;;;35.67;100.00
12247;BME280;6186;52.022;4.692;2023-08-21T11:32:13;102401.81;;;34.94;89.09
12247;BME280;6186;52.022;4.692;2023-08-21T11:34:41;102403.66;;;33.96;84.91
12247;BME280;6186;52.022;4.692;2023-08-21T11:37:06;102396.53;;;33.85;88.76
12247;BME280;6186;52.022;4.692;2023-08-21T11:39:51;102413.59;;;34.24;91.19
12247;BME280;6186;52.022;4.692;2023-08-21T11:42:19;102413.94;;;34.39;88.91
12247;BME280;6186;52.022;4.692;2023-08-21T11:44:51;102414.34;;;34.44;86.50
12247;BME280;6186;52.022;4.692;2023-08-21T11:47:18;102407.66;;;34.56;85.16
12247;BME280;6186;52.022;4.692;2023-08-21T11:49:45;102398.41;;;34.74;85.57
12247;BME280;6186;52.022;4.692;2023-08-21T11:52:11;102398.78;;;34.79;83.31
12247;BME280;6186;52.022;4.692;2023-08-21T11:54:37;102388.56;;;34.64;80.49
12247;BME280;6186;52.022;4.692;2023-08-21T11:57:05;102389.66;;;34.53;80.85
12247;BME280;6186;52.022;4.692;2023-08-21T11:59:30;102395.63;;;34.39;78.59
12247;BME280;6186;52.022;4.692;2023-08-21T12:01:55;102388.91;;;34.16;76.78
12247;BME280;6186;52.022;4.692;2023-08-21T12:04:21;102394.75;;;33.94;75.11
12247;BME280;6186;52.022;4.692;2023-08-21T12:06:46;102389.09;;;33.78;74.87
12247;BME280;6186;52.022;4.692;2023-08-21T12:09:11;102402.97;;;33.67;74.54
12247;BME280;6186;52.022;4.692;2023-08-21T12:11:36;102393.34;;;33.63;74.60
12247;BME280;6186;52.022;4.692;2023-08-21T12:14:01;102396.38;;;33.60;74.05
12247;BME280;6186;52.022;4.692;2023-08-21T12:16:27;102394.28;;;33.35;72.50
12247;BME280;6186;52.022;4.692;2023-08-21T12:18:52;102390.19;;;33.11;71.47
12247;BME280;6186;52.022;4.692;2023-08-21T12:21:17;102398.22;;;33.03;71.51
12247;BME280;6186;52.022;4.692;2023-08-21T12:23:42;102389.31;;;33.01;70.43
12247;BME280;6186;52.022;4.692;2023-08-21T12:26:08;102376.97;;;32.97;69.87
12247;BME280;6186;52.022;4.692;2023-08-21T12:28:33;102370.69;;;32.97;69.28
12247;BME280;6186;52.022;4.692;2023-08-21T12:30:58;102377.81;;;33.17;69.83
12247;BME280;6186;52.022;4.692;2023-08-21T12:33:23;102376.91;;;33.26;69.45
12247;BME280;6186;52.022;4.692;2023-08-21T12:35:48;102390.72;;;33.24;68.56
12247;BME280;6186;52.022;4.692;2023-08-21T12:38:14;102387.16;;;33.05;66.49
12247;BME280;6186;52.022;4.692;2023-08-21T12:40:39;102390.19;;;33.02;66.40
12247;BME280;6186;52.022;4.692;2023-08-21T12:43:05;102394.06;;;32.99;65.78
12247;BME280;6186;52.022;4.692;2023-08-21T12:45:30;102387.91;;;32.97;65.67
12247;BME280;6186;52.022;4.692;2023-08-21T12:47:55;102395.50;;;33.03;65.53
12247;BME280;6186;52.022;4.692;2023-08-21T12:50:20;102389.91;;;32.95;64.32
12247;BME280;6186;52.022;4.692;2023-08-21T12:52:46;102392.75;;;32.75;63.10